sensor_id;sensor_type;location;lat;lon;timestamp;P1;durP1;ratioP1;P2;durP2;ratioP2
52798;SDS011;38667;42.872;74.622;2023-02-15T00:01:46;36.87;;;16.87;;
52798;SDS011;38667;42.872;74.622;2023-02-15T00:04:16;33.17;;;17.23;;
52798;SDS011;38667;42.872;74.622;2023-02-15T00:06:44;39.20;;;17.03;;
52798;SDS011;38667;42.872;74.622;2023-02-15T00:09:10;39.53;;;17.10;;
52798;SDS011;38667;42.872;74.622;2023-02-15T00:11:37;36.87;;;17.87;;
52798;SDS011;38667;42.872;74.622;2023-02-15T00:14:04;41.23;;;19.87;;
52798;SDS011;38667;42.872;74.622;2023-02-15T00:16:30;39.03;;;18.90;;
52798;SDS011;38667;42.872;74.622;2023-02-15T00:18:57;41.77;;;18.53;;
52798;SDS011;38667;42.872;74.622;2023-02-15T00:21:25;45.20;;;19.73;;
52798;SDS011;38667;42.872;74.622;2023-02-15T00:23:51;38.57;;;18.13;;
52798;SDS011;38667;42.872;74.622;2023-02-15T00:26:17;36.67;;;16.23;;
52798;SDS011;38667;42.872;74.622;2023-02-15T00:28:44;41.77;;;17.20;;
52798;SDS011;38667;42.872;74.622;2023-02-15T00:31:10;28.93;;;14.53;;
52798;SDS011;38667;42.872;74.622;2023-02-15T00:33:37;30.37;;;14.13;;
52798;SDS011;38667;42.872;74.622;2023-02-15T00:36:05;25.93;;;12.80;;
52798;SDS011;38667;42.872;74.622;2023-02-15T00:38:34;26.63;;;12.83;;
52798;SDS011;38667;42.872;74.622;2023-02-15T00:41:03;30.50;;;12.23;;
52798;SDS011;38667;42.872;74.622;2023-02-15T00:43:30;29.17;;;12.43;;
52798;SDS011;38667;42.872;74.622;2023-02-15T00:45:58;20.57;;;10.23;;
52798;SDS011;38667;42.872;74.622;2023-02-15T00:48:24;27.10;;;9.80;;
52798;SDS011;38667;42.872;74.622;2023-02-15T00:50:52;20.77;;;9.27;;
52798;SDS011;38667;42.872;74.622;2023-02-15T00:53:19;20.27;;;9.43;;
52798;SDS011;38667;42.872;74.622;2023-02-15T00:55:47;16.60;;;8.60;;
52798;SDS011;38667;42.872;74.622;2023-02-15T00:58:13;16.07;;;8.87;;
52798;SDS011;38667;42.872;74.622;2023-02-15T01:00:41;17.60;;;8.37;;
52798;SDS011;38667;42.872;74.622;2023-02-15T01:03:09;23.53;;;8.73;;
52798;SDS011;38667;42.872;74.622;2023-02-15T01:05:35;18.33;;;8.97;;
52798;SDS011;38667;42.872;74.622;2023-02-15T01:08:02;25.90;;;8.93;;
52798;SDS011;38667;42.872;74.622;2023-02-15T01:10:29;20.90;;;9.00;;
52798;SDS011;38667;42.872;74.622;2023-02-15T01:12:57;19.03;;;9.23;;
52798;SDS011;38667;42.872;74.622;2023-02-15T01:15:23;20.17;;;10.13;;
52798;SDS011;38667;42.872;74.622;2023-02-15T01:17:49;26.23;;;11.37;;
52798;SDS011;38667;42.872;74.622;2023-02-15T01:20:16;21.20;;;11.63;;
52798;SDS011;38667;42.872;74.622;2023-02-15T01:22:43;31.47;;;12.63;;
52798;SDS011;38667;42.872;74.622;2023-02-15T01:25:09;33.53;;;13.00;;
52798;SDS011;38667;42.872;74.622;2023-02-15T01:27:36;30.93;;;13.10;;
52798;SDS011;38667;42.872;74.622;2023-02-15T01:30:04;35.33;;;16.13;;
52798;SDS011;38667;42.872;74.622;2023-02-15T01:32:31;31.10;;;15.50;;
52798;SDS011;38667;42.872;74.622;2023-02-15T01:34:57;41.50;;;15.83;;
52798;SDS011;38667;42.872;74.622;2023-02-15T01:37:24;38.87;;;17.90;;
52798;SDS011;38667;42.872;74.622;2023-02-15T01:39:50;44.70;;;18.53;;
52798;SDS011;38667;42.872;74.622;2023-02-15T01:42:20;38.30;;;18.53;;
52798;SDS011;38667;42.872;74.622;2023-02-15T01:44:48;39.20;;;19.93;;
52798;SDS011;38667;42.872;74.622;2023-02-15T01:47:20;44.97;;;20.93;;
52798;SDS011;38667;42.872;74.622;2023-02-15T01:49:51;46.77;;;21.53;;
52798;SDS011;38667;42.872;74.622;2023-02-15T01:52:25;50.00;;;21.53;;
52798;SDS011;38667;42.872;74.622;2023-02-15T01:54:51;48.70;;;22.87;;
52798;SDS011;38667;42.872;74.622;2023-02-15T01:57:19;51.60;;;23.43;;
52798;SDS011;38667;42.872;74.622;2023-02-15T01:59:51;54.93;;;25.93;;
52798;SDS011;38667;42.872;74.622;2023-02-15T02:02:21;61.37;;;26.33;;
52798;SDS011;38667;42.872;74.622;2023-02-15T02:04:48;61.90;;;28.50;;
52798;SDS011;38667;42.872;74.622;2023-02-15T02:07:17;59.63;;;27.87;;
52798;SDS011;38667;42.872;74.622;2023-02-15T02:09:45;62.33;;;28.80;;
52798;SDS011;38667;42.872;74.622;2023-02-15T02:12:12;64.63;;;29.73;;
52798;SDS011;38667;42.872;74.622;2023-02-15T02:14:39;63.13;;;31.33;;
52798;SDS011;38667;42.872;74.622;2023-02-15T02:17:07;71.13;;;32.07;;
52798;SDS011;38667;42.872;74.622;2023-02-15T02:19:57;70.57;;;34.13;;
52798;SDS011;38667;42.872;74.622;2023-02-15T02:25:48;90.13;;;37.43;;
52798;SDS011;38667;42.872;74.622;2023-02-15T02:28:46;80.70;;;37.40;;
52798;SDS011;38667;42.872;74.622;2023-02-15T02:31:39;81.00;;;37.27;;
52798;SDS011;38667;42.872;74.622;2023-02-15T02:34:21;83.93;;;39.33;;
52798;SDS011;38667;42.872;74.622;2023-02-15T02:36:55;94.57;;;40.30;;
52798;SDS011;38667;42.872;74.622;2023-02-15T02:39:30;92.90;;;40.53;;
52798;SDS011;38667;42.872;74.622;2023-02-15T02:42:05;96.40;;;40.63;;
52798;SDS011;38667;42.872;74.622;2023-02-15T02:44:39;91.33;;;39.80;;
52798;SDS011;38667;42.872;74.622;2023-02-15T02:47:09;94.47;;;41.97;;
52798;SDS011;38667;42.872;74.622;2023-02-15T02:49:42;103.13;;;44.87;;
52798;SDS011;38667;42.872;74.622;2023-02-15T02:55:07;99.90;;;44.57;;
52798;SDS011;38667;42.872;74.622;2023-02-15T02:57:37;99.50;;;43.27;;
52798;SDS011;38667;42.872;74.622;2023-02-15T03:00:08;97.93;;;42.10;;
52798;SDS011;38667;42.872;74.622;2023-02-15T03:02:35;98.10;;;42.33;;
52798;SDS011;38667;42.872;74.622;2023-02-15T03:05:08;93.07;;;40.00;;
52798;SDS011;38667;42.872;74.622;2023-02-15T03:07:40;101.57;;;42.33;;
52798;SDS011;38667;42.872;74.622;2023-02-15T03:10:08;93.80;;;40.93;;
52798;SDS011;38667;42.872;74.622;2023-02-15T03:12:36;91.83;;;40.13;;
52798;SDS011;38667;42.872;74.622;2023-02-15T03:15:05;88.43;;;39.73;;
52798;SDS011;38667;42.872;74.622;2023-02-15T03:17:35;89.00;;;38.27;;
52798;SDS011;38667;42.872;74.622;2023-02-15T03:20:06;86.23;;;39.13;;
52798;SDS011;38667;42.872;74.622;2023-02-15T03:22:38;94.70;;;40.23;;
52798;SDS011;38667;42.872;74.622;2023-02-15T03:25:10;92.10;;;37.13;;
52798;SDS011;38667;42.872;74.622;2023-02-15T03:27:40;89.00;;;39.07;;
52798;SDS011;38667;42.872;74.622;2023-02-15T03:30:10;90.60;;;37.90;;
52798;SDS011;38667;42.872;74.622;2023-02-15T03:32:38;84.93;;;36.67;;
52798;SDS011;38667;42.872;74.622;2023-02-15T03:35:06;89.73;;;36.47;;
52798;SDS011;38667;42.872;74.622;2023-02-15T03:37:36;82.67;;;33.97;;
52798;SDS011;38667;42.872;74.622;2023-02-15T03:40:06;76.60;;;33.63;;
52798;SDS011;38667;42.872;74.622;2023-02-15T03:42:36;75.97;;;31.53;;
52798;SDS011;38667;42.872;74.622;2023-02-15T03:45:05;68.23;;;32.03;;
52798;SDS011;38667;42.872;74.622;2023-02-15T03:47:35;67.30;;;30.27;;
52798;SDS011;38667;42.872;74.622;2023-02-15T03:50:04;72.07;;;31.03;;
52798;SDS011;38667;42.872;74.622;2023-02-15T03:52:35;68.33;;;28.83;;
52798;SDS011;38667;42.872;74.622;2023-02-15T03:55:02;68.97;;;29.37;;
52798;SDS011;38667;42.872;74.622;2023-02-15T03:57:29;65.80;;;27.93;;
52798;SDS011;38667;42.872;74.622;2023-02-15T03:59:55;69.93;;;27.47;;
52798;SDS011;38667;42.872;74.622;2023-02-15T04:02:22;57.03;;;26.27;;
52798;SDS011;38667;42.872;74.622;2023-02-15T04:04:55;63.53;;;26.43;;
52798;SDS011;38667;42.872;74.622;2023-02-15T04:07:21;59.07;;;25.50;;
52798;SDS011;38667;42.872;74.622;2023-02-15T04:09:49;62.73;;;24.50;;
52798;SDS011;38667;42.872;74.622;2023-02-15T04:12:15;61.70;;;23.90;;
52798;SDS011;38667;42.872;74.622;2023-02-15T04:14:41;57.40;;;24.73;;
52798;SDS011;38667;42.872;74.622;2023-02-15T04:17:08;60.73;;;22.87;;
52798;SDS011;38667;42.872;74.622;2023-02-15T04:19:34;52.93;;;23.87;;
52798;SDS011;38667;42.872;74.622;2023-02-15T04:22:01;58.30;;;23.63;;
52798;SDS011;38667;42.872;74.622;2023-02-15T04:24:27;62.70;;;23.97;;
52798;SDS011;38667;42.872;74.622;2023-02-15T04:26:55;48.77;;;22.43;;
52798;SDS011;38667;42.872;74.622;2023-02-15T04:29:22;48.17;;;21.73;;
52798;SDS011;38667;42.872;74.622;2023-02-15T04:31:49;47.77;;;21.57;;
52798;SDS011;38667;42.872;74.622;2023-02-15T04:34:17;56.03;;;23.27;;
52798;SDS011;38667;42.872;74.622;2023-02-15T04:36:43;52.60;;;22.87;;
52798;SDS011;38667;42.872;74.622;2023-02-15T04:39:11;54.60;;;23.03;;
52798;SDS011;38667;42.872;74.622;2023-02-15T04:41:39;52.53;;;22.60;;
52798;SDS011;38667;42.872;74.622;2023-02-15T04:44:07;48.30;;;22.03;;
52798;SDS011;38667;42.872;74.622;2023-02-15T04:46:33;43.57;;;21.67;;
52798;SDS011;38667;42.872;74.622;2023-02-15T04:48:59;55.63;;;23.20;;
52798;SDS011;38667;42.872;74.622;2023-02-15T04:51:26;54.00;;;22.97;;
52798;SDS011;38667;42.872;74.622;2023-02-15T04:53:52;53.93;;;22.57;;
52798;SDS011;38667;42.872;74.622;2023-02-15T04:56:18;46.97;;;22.53;;
52798;SDS011;38667;42.872;74.622;2023-02-15T04:58:45;50.10;;;21.60;;
52798;SDS011;38667;42.872;74.622;2023-02-15T05:01:13;44.23;;;19.90;;
52798;SDS011;38667;42.872;74.622;2023-02-15T05:03:39;45.10;;;20.70;;
52798;SDS011;38667;42.872;74.622;2023-02-15T05:06:06;39.43;;;17.80;;
52798;SDS011;38667;42.872;74.622;2023-02-15T05:08:32;35.67;;;17.20;;
52798;SDS011;38667;42.872;74.622;2023-02-15T05:10:58;41.90;;;19.13;;
52798;SDS011;38667;42.872;74.622;2023-02-15T05:13:25;37.00;;;18.63;;
52798;SDS011;38667;42.872;74.622;2023-02-15T05:15:51;36.60;;;17.97;;
52798;SDS011;38667;42.872;74.622;2023-02-15T05:18:20;39.10;;;17.63;;
52798;SDS011;38667;42.872;74.622;2023-02-15T05:20:47;45.83;;;18.53;;
52798;SDS011;38667;42.872;74.622;2023-02-15T05:23:13;43.37;;;18.97;;
52798;SDS011;38667;42.872;74.622;2023-02-15T05:25:40;42.60;;;19.73;;
52798;SDS011;38667;42.872;74.622;2023-02-15T05:28:08;43.70;;;18.57;;
52798;SDS011;38667;42.872;74.622;2023-02-15T05:30:35;39.17;;;17.90;;
52798;SDS011;38667;42.872;74.622;2023-02-15T05:33:02;38.20;;;16.73;;
52798;SDS011;38667;42.872;74.622;2023-02-15T05:35:29;34.23;;;16.07;;
52798;SDS011;38667;42.872;74.622;2023-02-15T05:37:56;34.23;;;16.20;;
52798;SDS011;38667;42.872;74.622;2023-02-15T05:40:23;35.70;;;16.83;;
52798;SDS011;38667;42.872;74.622;2023-02-15T05:42:49;36.53;;;15.60;;
52798;SDS011;38667;42.872;74.622;2023-02-15T05:45:15;35.67;;;17.07;;
52798;SDS011;38667;42.872;74.622;2023-02-15T05:47:42;38.03;;;16.13;;
52798;SDS011;38667;42.872;74.622;2023-02-15T05:50:08;33.97;;;17.83;;
52798;SDS011;38667;42.872;74.622;2023-02-15T05:52:37;139.43;;;63.70;;
52798;SDS011;38667;42.872;74.622;2023-02-15T05:55:03;164.37;;;77.63;;
52798;SDS011;38667;42.872;74.622;2023-02-15T05:57:30;164.97;;;78.43;;
52798;SDS011;38667;42.872;74.622;2023-02-15T05:59:57;167.03;;;78.30;;
52798;SDS011;38667;42.872;74.622;2023-02-15T06:02:23;165.53;;;80.27;;
52798;SDS011;38667;42.872;74.622;2023-02-15T06:04:49;179.60;;;78.47;;
52798;SDS011;38667;42.872;74.622;2023-02-15T06:07:16;172.77;;;80.53;;
52798;SDS011;38667;42.872;74.622;2023-02-15T06:09:43;175.40;;;82.87;;
52798;SDS011;38667;42.872;74.622;2023-02-15T06:12:10;183.57;;;88.17;;
52798;SDS011;38667;42.872;74.622;2023-02-15T06:14:36;184.90;;;89.17;;
52798;SDS011;38667;42.872;74.622;2023-02-15T06:17:02;182.87;;;90.53;;
52798;SDS011;38667;42.872;74.622;2023-02-15T06:19:29;179.33;;;92.07;;
52798;SDS011;38667;42.872;74.622;2023-02-15T06:21:55;182.30;;;88.90;;
52798;SDS011;38667;42.872;74.622;2023-02-15T06:24:21;189.43;;;88.17;;
52798;SDS011;38667;42.872;74.622;2023-02-15T06:26:49;177.83;;;86.33;;
52798;SDS011;38667;42.872;74.622;2023-02-15T06:29:15;173.73;;;86.03;;
52798;SDS011;38667;42.872;74.622;2023-02-15T06:31:42;174.83;;;85.93;;
52798;SDS011;38667;42.872;74.622;2023-02-15T06:34:08;186.32;;;89.35;;
52798;SDS011;38667;42.872;74.622;2023-02-15T06:36:34;199.20;;;90.67;;
52798;SDS011;38667;42.872;74.622;2023-02-15T06:39:00;191.30;;;91.30;;
52798;SDS011;38667;42.872;74.622;2023-02-15T06:41:27;185.80;;;91.53;;
52798;SDS011;38667;42.872;74.622;2023-02-15T06:43:55;182.40;;;96.00;;
52798;SDS011;38667;42.872;74.622;2023-02-15T06:46:21;179.43;;;88.32;;
52798;SDS011;38667;42.872;74.622;2023-02-15T06:48:47;195.00;;;94.50;;
52798;SDS011;38667;42.872;74.622;2023-02-15T06:51:14;187.20;;;92.53;;
52798;SDS011;38667;42.872;74.622;2023-02-15T06:53:40;175.02;;;89.45;;
52798;SDS011;38667;42.872;74.622;2023-02-15T06:56:07;174.63;;;86.20;;
52798;SDS011;38667;42.872;74.622;2023-02-15T06:58:35;177.18;;;88.53;;
52798;SDS011;38667;42.872;74.622;2023-02-15T07:01:03;179.53;;;86.93;;
52798;SDS011;38667;42.872;74.622;2023-02-15T07:03:30;179.20;;;86.20;;
52798;SDS011;38667;42.872;74.622;2023-02-15T07:05:57;171.82;;;85.47;;
52798;SDS011;38667;42.872;74.622;2023-02-15T07:08:24;191.90;;;87.10;;
52798;SDS011;38667;42.872;74.622;2023-02-15T07:10:52;164.35;;;83.80;;
52798;SDS011;38667;42.872;74.622;2023-02-15T07:13:19;158.55;;;82.20;;
52798;SDS011;38667;42.872;74.622;2023-02-15T07:15:46;171.85;;;88.40;;
52798;SDS011;38667;42.872;74.622;2023-02-15T07:18:14;156.38;;;80.05;;
52798;SDS011;38667;42.872;74.622;2023-02-15T07:20:41;182.73;;;86.10;;
52798;SDS011;38667;42.872;74.622;2023-02-15T07:23:07;178.52;;;85.97;;
52798;SDS011;38667;42.872;74.622;2023-02-15T07:25:33;158.90;;;77.00;;
52798;SDS011;38667;42.872;74.622;2023-02-15T07:28:00;153.23;;;75.63;;
52798;SDS011;38667;42.872;74.622;2023-02-15T07:30:28;185.77;;;80.85;;
52798;SDS011;38667;42.872;74.622;2023-02-15T07:32:54;168.20;;;84.57;;
52798;SDS011;38667;42.872;74.622;2023-02-15T07:35:22;182.85;;;80.97;;
52798;SDS011;38667;42.872;74.622;2023-02-15T07:37:49;177.52;;;85.88;;
52798;SDS011;38667;42.872;74.622;2023-02-15T07:40:15;174.93;;;82.18;;
52798;SDS011;38667;42.872;74.622;2023-02-15T07:42:41;185.10;;;78.87;;
52798;SDS011;38667;42.872;74.622;2023-02-15T07:45:08;176.45;;;82.15;;
52798;SDS011;38667;42.872;74.622;2023-02-15T07:47:34;160.65;;;74.78;;
52798;SDS011;38667;42.872;74.622;2023-02-15T07:50:01;135.82;;;64.68;;
52798;SDS011;38667;42.872;74.622;2023-02-15T07:52:28;129.50;;;57.08;;
52798;SDS011;38667;42.872;74.622;2023-02-15T07:54:55;117.97;;;55.72;;
52798;SDS011;38667;42.872;74.622;2023-02-15T07:57:21;99.10;;;42.40;;
52798;SDS011;38667;42.872;74.622;2023-02-15T07:59:47;91.22;;;43.42;;
52798;SDS011;38667;42.872;74.622;2023-02-15T08:02:14;102.88;;;40.88;;
52798;SDS011;38667;42.872;74.622;2023-02-15T08:04:40;87.45;;;40.35;;
52798;SDS011;38667;42.872;74.622;2023-02-15T08:07:06;78.78;;;40.70;;
52798;SDS011;38667;42.872;74.622;2023-02-15T08:09:34;93.28;;;44.47;;
52798;SDS011;38667;42.872;74.622;2023-02-15T08:12:01;94.10;;;43.65;;
52798;SDS011;38667;42.872;74.622;2023-02-15T08:14:27;94.50;;;45.53;;
52798;SDS011;38667;42.872;74.622;2023-02-15T08:16:54;76.57;;;40.72;;
52798;SDS011;38667;42.872;74.622;2023-02-15T08:19:21;63.10;;;33.03;;
52798;SDS011;38667;42.872;74.622;2023-02-15T08:21:49;63.10;;;33.03;;
52798;SDS011;38667;42.872;74.622;2023-02-15T08:24:17;64.75;;;31.23;;
52798;SDS011;38667;42.872;74.622;2023-02-15T08:26:46;49.78;;;25.42;;
52798;SDS011;38667;42.872;74.622;2023-02-15T08:29:13;47.00;;;21.27;;
52798;SDS011;38667;42.872;74.622;2023-02-15T08:31:41;42.08;;;19.05;;
52798;SDS011;38667;42.872;74.622;2023-02-15T08:34:08;36.97;;;20.88;;
52798;SDS011;38667;42.872;74.622;2023-02-15T08:36:35;40.60;;;20.73;;
52798;SDS011;38667;42.872;74.622;2023-02-15T08:39:02;36.50;;;20.50;;
52798;SDS011;38667;42.872;74.622;2023-02-15T08:41:30;34.80;;;16.58;;
52798;SDS011;38667;42.872;74.622;2023-02-15T08:44:00;30.77;;;16.10;;
52798;SDS011;38667;42.872;74.622;2023-02-15T08:46:28;28.92;;;15.77;;
52798;SDS011;38667;42.872;74.622;2023-02-15T08:48:56;30.80;;;14.77;;
52798;SDS011;38667;42.872;74.622;2023-02-15T08:51:23;35.73;;;14.30;;
52798;SDS011;38667;42.872;74.622;2023-02-15T08:53:52;31.37;;;14.90;;
52798;SDS011;38667;42.872;74.622;2023-02-15T08:56:21;36.30;;;15.40;;
52798;SDS011;38667;42.872;74.622;2023-02-15T08:58:49;46.80;;;19.07;;
52798;SDS011;38667;42.872;74.622;2023-02-15T09:01:17;58.42;;;24.52;;
52798;SDS011;38667;42.872;74.622;2023-02-15T09:03:45;57.80;;;22.60;;
52798;SDS011;38667;42.872;74.622;2023-02-15T09:06:13;63.30;;;22.47;;
52798;SDS011;38667;42.872;74.622;2023-02-15T09:08:39;56.03;;;21.80;;
52798;SDS011;38667;42.872;74.622;2023-02-15T09:11:06;66.60;;;25.47;;
52798;SDS011;38667;42.872;74.622;2023-02-15T09:13:33;67.47;;;26.17;;
52798;SDS011;38667;42.872;74.622;2023-02-15T09:16:01;58.07;;;24.67;;
52798;SDS011;38667;42.872;74.622;2023-02-15T09:18:31;73.60;;;29.23;;
52798;SDS011;38667;42.872;74.622;2023-02-15T09:21:03;59.10;;;27.87;;
52798;SDS011;38667;42.872;74.622;2023-02-15T09:23:30;55.80;;;24.60;;
52798;SDS011;38667;42.872;74.622;2023-02-15T09:25:57;46.80;;;20.57;;
52798;SDS011;38667;42.872;74.622;2023-02-15T09:28:28;42.57;;;20.50;;
52798;SDS011;38667;42.872;74.622;2023-02-15T09:30:54;44.00;;;21.03;;
52798;SDS011;38667;42.872;74.622;2023-02-15T09:33:20;53.77;;;22.97;;
52798;SDS011;38667;42.872;74.622;2023-02-15T09:35:48;41.20;;;21.13;;
52798;SDS011;38667;42.872;74.622;2023-02-15T09:38:15;35.43;;;18.57;;
52798;SDS011;38667;42.872;74.622;2023-02-15T09:40:42;64.70;;;22.93;;
52798;SDS011;38667;42.872;74.622;2023-02-15T09:43:20;50.77;;;21.67;;
52798;SDS011;38667;42.872;74.622;2023-02-15T09:46:04;42.53;;;21.77;;
52798;SDS011;38667;42.872;74.622;2023-02-15T09:48:44;49.50;;;21.23;;
52798;SDS011;38667;42.872;74.622;2023-02-15T09:51:22;55.30;;;21.30;;
52798;SDS011;38667;42.872;74.622;2023-02-15T09:54:03;57.43;;;23.57;;
52798;SDS011;38667;42.872;74.622;2023-02-15T09:56:39;57.13;;;24.97;;
52798;SDS011;38667;42.872;74.622;2023-02-15T09:59:12;64.80;;;26.23;;
52798;SDS011;38667;42.872;74.622;2023-02-15T10:01:45;51.83;;;24.43;;
52798;SDS011;38667;42.872;74.622;2023-02-15T10:04:22;53.77;;;23.70;;
52798;SDS011;38667;42.872;74.622;2023-02-15T10:07:03;51.33;;;25.00;;
52798;SDS011;38667;42.872;74.622;2023-02-15T10:09:41;63.20;;;28.93;;
52798;SDS011;38667;42.872;74.622;2023-02-15T10:12:23;45.70;;;21.67;;
52798;SDS011;38667;42.872;74.622;2023-02-15T10:15:09;55.60;;;20.50;;
52798;SDS011;38667;42.872;74.622;2023-02-15T10:17:56;96.23;;;40.50;;
52798;SDS011;38667;42.872;74.622;2023-02-15T10:20:36;53.90;;;23.27;;
52798;SDS011;38667;42.872;74.622;2023-02-15T10:23:14;50.10;;;24.17;;
52798;SDS011;38667;42.872;74.622;2023-02-15T10:25:52;54.77;;;24.80;;
52798;SDS011;38667;42.872;74.622;2023-02-15T10:28:30;44.37;;;21.93;;
52798;SDS011;38667;42.872;74.622;2023-02-15T10:31:07;52.63;;;23.77;;
52798;SDS011;38667;42.872;74.622;2023-02-15T10:33:42;57.50;;;27.17;;
52798;SDS011;38667;42.872;74.622;2023-02-15T10:36:12;68.43;;;27.20;;
52798;SDS011;38667;42.872;74.622;2023-02-15T10:38:55;60.70;;;28.83;;
52798;SDS011;38667;42.872;74.622;2023-02-15T10:41:30;74.67;;;31.87;;
52798;SDS011;38667;42.872;74.622;2023-02-15T10:44:05;75.77;;;34.17;;
52798;SDS011;38667;42.872;74.622;2023-02-15T10:46:55;88.17;;;36.20;;
52798;SDS011;38667;42.872;74.622;2023-02-15T10:49:41;83.03;;;36.83;;
52798;SDS011;38667;42.872;74.622;2023-02-15T10:52:22;78.67;;;35.07;;
52798;SDS011;38667;42.872;74.622;2023-02-15T10:55:05;91.63;;;39.17;;
52798;SDS011;38667;42.872;74.622;2023-02-15T10:57:40;101.20;;;39.63;;
52798;SDS011;38667;42.872;74.622;2023-02-15T11:00:17;93.13;;;40.03;;
52798;SDS011;38667;42.872;74.622;2023-02-15T11:02:59;79.20;;;36.67;;
52798;SDS011;38667;42.872;74.622;2023-02-15T11:05:39;62.87;;;33.73;;
52798;SDS011;38667;42.872;74.622;2023-02-15T11:08:10;73.13;;;34.30;;
52798;SDS011;38667;42.872;74.622;2023-02-15T11:10:41;72.33;;;33.80;;
52798;SDS011;38667;42.872;74.622;2023-02-15T11:13:13;78.83;;;37.80;;
52798;SDS011;38667;42.872;74.622;2023-02-15T11:15:43;77.90;;;36.97;;
52798;SDS011;38667;42.872;74.622;2023-02-15T11:18:14;78.27;;;36.30;;
52798;SDS011;38667;42.872;74.622;2023-02-15T11:20:51;65.60;;;33.97;;
52798;SDS011;38667;42.872;74.622;2023-02-15T11:23:20;71.20;;;35.10;;
52798;SDS011;38667;42.872;74.622;2023-02-15T11:25:55;79.07;;;36.60;;
52798;SDS011;38667;42.872;74.622;2023-02-15T11:28:24;83.87;;;37.13;;
52798;SDS011;38667;42.872;74.622;2023-02-15T11:30:56;104.93;;;43.23;;
52798;SDS011;38667;42.872;74.622;2023-02-15T11:33:26;87.50;;;38.60;;
52798;SDS011;38667;42.872;74.622;2023-02-15T11:35:57;90.27;;;38.87;;
52798;SDS011;38667;42.872;74.622;2023-02-15T11:38:29;90.77;;;39.47;;
52798;SDS011;38667;42.872;74.622;2023-02-15T11:41:01;110.33;;;48.10;;
52798;SDS011;38667;42.872;74.622;2023-02-15T11:43:31;159.40;;;62.77;;
52798;SDS011;38667;42.872;74.622;2023-02-15T11:46:03;123.20;;;51.43;;
52798;SDS011;38667;42.872;74.622;2023-02-15T11:48:30;122.53;;;52.20;;
52798;SDS011;38667;42.872;74.622;2023-02-15T11:50:57;114.30;;;50.10;;
52798;SDS011;38667;42.872;74.622;2023-02-15T11:53:25;139.27;;;62.63;;
52798;SDS011;38667;42.872;74.622;2023-02-15T11:55:56;153.33;;;69.03;;
52798;SDS011;38667;42.872;74.622;2023-02-15T11:58:25;142.70;;;68.83;;
52798;SDS011;38667;42.872;74.622;2023-02-15T12:00:59;128.33;;;59.53;;
52798;SDS011;38667;42.872;74.622;2023-02-15T12:03:31;125.93;;;57.97;;
52798;SDS011;38667;42.872;74.622;2023-02-15T12:06:11;287.90;;;111.40;;
52798;SDS011;38667;42.872;74.622;2023-02-15T12:08:42;194.50;;;84.33;;
52798;SDS011;38667;42.872;74.622;2023-02-15T12:11:17;168.47;;;79.20;;
52798;SDS011;38667;42.872;74.622;2023-02-15T12:13:58;138.17;;;62.10;;
52798;SDS011;38667;42.872;74.622;2023-02-15T12:16:25;130.10;;;59.23;;
52798;SDS011;38667;42.872;74.622;2023-02-15T12:18:54;87.13;;;39.33;;
52798;SDS011;38667;42.872;74.622;2023-02-15T12:21:26;71.90;;;35.77;;
52798;SDS011;38667;42.872;74.622;2023-02-15T12:23:55;74.23;;;37.80;;
52798;SDS011;38667;42.872;74.622;2023-02-15T12:26:23;127.50;;;62.90;;
52798;SDS011;38667;42.872;74.622;2023-02-15T12:28:52;131.73;;;64.83;;
52798;SDS011;38667;42.872;74.622;2023-02-15T12:31:21;131.83;;;67.23;;
52798;SDS011;38667;42.872;74.622;2023-02-15T12:33:52;77.73;;;42.87;;
52798;SDS011;38667;42.872;74.622;2023-02-15T12:36:20;82.73;;;38.67;;
52798;SDS011;38667;42.872;74.622;2023-02-15T12:39:09;101.37;;;48.47;;
52798;SDS011;38667;42.872;74.622;2023-02-15T12:41:43;102.63;;;51.23;;
52798;SDS011;38667;42.872;74.622;2023-02-15T12:44:15;133.30;;;59.00;;
52798;SDS011;38667;42.872;74.622;2023-02-15T12:46:44;172.93;;;75.80;;
52798;SDS011;38667;42.872;74.622;2023-02-15T12:49:22;171.17;;;78.70;;
52798;SDS011;38667;42.872;74.622;2023-02-15T12:51:49;159.97;;;72.10;;
52798;SDS011;38667;42.872;74.622;2023-02-15T12:57:22;113.53;;;56.50;;
52798;SDS011;38667;42.872;74.622;2023-02-15T12:59:53;120.17;;;55.57;;
52798;SDS011;38667;42.872;74.622;2023-02-15T13:05:18;119.80;;;52.57;;
52798;SDS011;38667;42.872;74.622;2023-02-15T13:07:50;128.97;;;58.57;;
52798;SDS011;38667;42.872;74.622;2023-02-15T13:10:22;126.27;;;59.33;;
52798;SDS011;38667;42.872;74.622;2023-02-15T13:12:51;117.57;;;60.47;;
52798;SDS011;38667;42.872;74.622;2023-02-15T13:15:23;114.83;;;56.00;;
52798;SDS011;38667;42.872;74.622;2023-02-15T13:17:53;123.47;;;62.53;;
52798;SDS011;38667;42.872;74.622;2023-02-15T13:20:21;130.77;;;65.30;;
52798;SDS011;38667;42.872;74.622;2023-02-15T13:22:48;161.13;;;76.97;;
52798;SDS011;38667;42.872;74.622;2023-02-15T13:25:17;176.93;;;78.97;;
52798;SDS011;38667;42.872;74.622;2023-02-15T13:27:48;207.80;;;95.23;;
52798;SDS011;38667;42.872;74.622;2023-02-15T13:30:22;227.30;;;104.03;;
52798;SDS011;38667;42.872;74.622;2023-02-15T13:32:51;182.30;;;89.73;;
52798;SDS011;38667;42.872;74.622;2023-02-15T13:35:23;203.63;;;96.20;;
52798;SDS011;38667;42.872;74.622;2023-02-15T13:38:01;172.67;;;87.60;;
52798;SDS011;38667;42.872;74.622;2023-02-15T13:40:37;209.53;;;97.40;;
52798;SDS011;38667;42.872;74.622;2023-02-15T13:43:12;175.17;;;87.37;;
52798;SDS011;38667;42.872;74.622;2023-02-15T13:45:53;204.93;;;95.83;;
52798;SDS011;38667;42.872;74.622;2023-02-15T13:48:32;179.73;;;84.90;;
52798;SDS011;38667;42.872;74.622;2023-02-15T13:51:08;198.87;;;90.53;;
52798;SDS011;38667;42.872;74.622;2023-02-15T13:53:45;164.93;;;76.50;;
52798;SDS011;38667;42.872;74.622;2023-02-15T13:56:25;158.93;;;70.03;;
52798;SDS011;38667;42.872;74.622;2023-02-15T13:59:16;146.87;;;70.10;;
52798;SDS011;38667;42.872;74.622;2023-02-15T14:01:53;150.77;;;67.73;;
52798;SDS011;38667;42.872;74.622;2023-02-15T14:04:28;148.87;;;68.43;;
52798;SDS011;38667;42.872;74.622;2023-02-15T14:09:58;148.10;;;66.23;;
52798;SDS011;38667;42.872;74.622;2023-02-15T14:12:46;151.37;;;66.30;;
52798;SDS011;38667;42.872;74.622;2023-02-15T14:15:26;148.10;;;70.10;;
52798;SDS011;38667;42.872;74.622;2023-02-15T14:18:01;156.27;;;71.83;;
52798;SDS011;38667;42.872;74.622;2023-02-15T14:20:43;130.40;;;62.60;;
52798;SDS011;38667;42.872;74.622;2023-02-15T14:23:20;121.40;;;58.87;;
52798;SDS011;38667;42.872;74.622;2023-02-15T14:25:54;127.93;;;59.47;;
52798;SDS011;38667;42.872;74.622;2023-02-15T14:28:27;115.87;;;53.90;;
52798;SDS011;38667;42.872;74.622;2023-02-15T14:30:59;106.87;;;54.87;;
52798;SDS011;38667;42.872;74.622;2023-02-15T14:33:30;120.97;;;54.43;;
52798;SDS011;38667;42.872;74.622;2023-02-15T14:36:00;107.87;;;52.07;;
52798;SDS011;38667;42.872;74.622;2023-02-15T14:38:33;107.77;;;51.23;;